createdAt,value
2022-09-30T00:01:09.997Z,2.93
2022-09-30T00:03:37.930Z,2.20
2022-09-30T00:06:09.102Z,3.30
2022-09-30T00:08:37.989Z,3.23
2022-09-30T00:11:08.889Z,2.10
2022-09-30T00:13:39.246Z,5.40
2022-09-30T00:16:09.712Z,3.17
2022-09-30T00:18:38.189Z,2.50
2022-09-30T00:21:08.714Z,3.23
2022-09-30T00:23:37.936Z,2.77
2022-09-30T00:26:08.089Z,3.03
2022-09-30T00:28:37.233Z,3.10
2022-09-30T00:31:09.784Z,3.93
2022-09-30T00:33:37.865Z,5.43
2022-09-30T00:36:07.583Z,2.60
2022-09-30T00:38:37.588Z,2.37
2022-09-30T00:41:05.460Z,2.63
2022-09-30T00:43:42.536Z,2.83
2022-09-30T00:46:22.086Z,2.40
2022-09-30T00:48:54.016Z,4.03
2022-09-30T00:51:35.100Z,2.70
2022-09-30T00:54:07.818Z,3.37
2022-09-30T00:56:40.626Z,2.73
2022-09-30T00:59:11.713Z,2.47
2022-09-30T01:01:42.296Z,3.70
2022-09-30T01:04:14.914Z,2.60
2022-09-30T01:06:45.347Z,2.47
2022-09-30T01:09:13.441Z,3.47
2022-09-30T01:12:01.911Z,3.07
2022-09-30T01:14:30.474Z,2.77
2022-09-30T01:17:06.622Z,4.10
2022-09-30T01:20:23.693Z,2.67
2022-09-30T01:23:08.401Z,5.03
2022-09-30T01:26:04.531Z,3.73
2022-09-30T01:29:02.423Z,3.30
2022-09-30T01:31:45.982Z,3.87
2022-09-30T01:34:21.340Z,3.77
2022-09-30T01:37:04.334Z,3.10
2022-09-30T01:39:42.932Z,2.83
2022-09-30T01:42:50.130Z,2.67
2022-09-30T01:45:28.033Z,3.20
2022-09-30T01:48:04.361Z,4.33
2022-09-30T01:50:44.223Z,2.93
2022-09-30T01:53:20.290Z,2.60
2022-09-30T01:55:51.753Z,2.50
2022-09-30T01:58:26.589Z,3.20
2022-09-30T02:01:00.837Z,4.13
2022-09-30T02:03:34.154Z,3.43
2022-09-30T02:06:06.247Z,2.80
2022-09-30T02:08:42.353Z,3.43
2022-09-30T02:11:18.851Z,2.90
2022-09-30T02:13:52.926Z,2.90
2022-09-30T02:16:27.158Z,2.97
2022-09-30T02:19:02.265Z,5.17
2022-09-30T02:21:35.588Z,3.00
2022-09-30T02:24:09.942Z,3.50
2022-09-30T02:29:30.866Z,3.70
2022-09-30T02:32:05.107Z,3.20
2022-09-30T02:34:39.659Z,4.47
2022-09-30T02:37:13.258Z,4.47
2022-09-30T02:39:44.915Z,6.87
2022-09-30T02:42:20.394Z,4.80
2022-09-30T02:44:49.688Z,4.97
2022-09-30T02:47:28.173Z,6.03
2022-09-30T02:50:03.648Z,7.33
2022-09-30T02:52:47.866Z,4.27
2022-09-30T02:55:20.184Z,3.17
2022-09-30T02:57:59.400Z,4.27
2022-09-30T03:00:27.746Z,3.70
2022-09-30T03:03:00.692Z,2.83
2022-09-30T03:05:30.267Z,3.07
2022-09-30T03:07:58.382Z,2.63
2022-09-30T03:10:26.457Z,3.20
2022-09-30T03:13:11.725Z,3.47
2022-09-30T03:15:57.953Z,3.20
2022-09-30T03:18:41.018Z,2.70
2022-09-30T03:21:23.245Z,2.90
2022-09-30T03:24:14.531Z,2.77
2022-09-30T03:26:53.121Z,3.27
2022-09-30T03:29:26.534Z,2.60
2022-09-30T03:32:08.824Z,2.60
2022-09-30T03:34:47.423Z,2.50
2022-09-30T03:37:27.123Z,2.57
2022-09-30T03:40:01.573Z,2.40
2022-09-30T03:42:36.071Z,2.80
2022-09-30T03:45:08.853Z,2.47
2022-09-30T03:47:43.199Z,2.83
2022-09-30T03:50:16.379Z,2.30
2022-09-30T03:52:46.086Z,2.80
2022-09-30T03:55:14.262Z,2.47
2022-09-30T03:57:44.292Z,2.97
2022-09-30T04:00:13.889Z,3.10
2022-09-30T04:02:42.144Z,3.07
2022-09-30T04:05:10.237Z,3.13
2022-09-30T04:07:38.198Z,2.47
2022-09-30T04:10:08.437Z,3.03
2022-09-30T04:12:36.401Z,2.40
2022-09-30T04:15:04.411Z,3.63
2022-09-30T04:17:32.292Z,2.50
2022-09-30T04:20:00.177Z,4.13
2022-09-30T04:22:28.030Z,2.87
2022-09-30T04:24:55.875Z,3.17
2022-09-30T04:27:25.304Z,3.10
2022-09-30T04:29:53.202Z,3.67
2022-09-30T04:32:23.342Z,2.57
2022-09-30T04:34:51.195Z,4.53
2022-09-30T04:37:19.177Z,2.97
2022-09-30T04:39:47.126Z,2.80
2022-09-30T04:42:15.028Z,2.73
2022-09-30T04:44:44.383Z,2.80
2022-09-30T04:47:12.266Z,3.00
2022-09-30T04:49:40.100Z,3.47
2022-09-30T04:52:07.950Z,3.37
2022-09-30T04:54:35.848Z,3.50
2022-09-30T04:57:03.765Z,5.93
2022-09-30T04:59:31.669Z,4.03
2022-09-30T05:02:02.222Z,3.30
2022-09-30T05:04:33.354Z,3.30
2022-09-30T05:07:01.802Z,3.03
2022-09-30T05:09:29.827Z,3.50
2022-09-30T05:11:57.795Z,3.30
2022-09-30T05:14:25.705Z,6.03
2022-09-30T05:16:53.596Z,3.63
2022-09-30T05:19:25.531Z,4.70
2022-09-30T05:21:53.380Z,3.97
2022-09-30T05:24:21.429Z,3.97
2022-09-30T05:26:56.748Z,3.93
2022-09-30T05:29:24.651Z,4.73
2022-09-30T05:31:54.709Z,6.13
2022-09-30T05:34:26.403Z,3.70
2022-09-30T05:36:54.286Z,4.43
2022-09-30T05:39:22.216Z,4.10
2022-09-30T05:42:02.096Z,4.77
2022-09-30T05:44:37.524Z,5.13
2022-09-30T05:47:05.827Z,6.13
2022-09-30T05:49:43.658Z,4.13
2022-09-30T05:52:35.707Z,4.97
2022-09-30T05:55:09.149Z,11.20
2022-09-30T05:57:37.285Z,5.63
2022-09-30T06:00:06.522Z,4.97
2022-09-30T06:02:38.465Z,6.37
2022-09-30T06:05:10.875Z,4.83
2022-09-30T06:07:39.926Z,5.50
2022-09-30T06:10:12.132Z,6.37
2022-09-30T06:12:40.348Z,6.37
2022-09-30T06:17:47.617Z,5.63
2022-09-30T06:20:17.234Z,8.83
2022-09-30T06:22:45.106Z,5.47
2022-09-30T06:25:13.050Z,5.33
2022-09-30T06:27:43.189Z,6.53
2022-09-30T06:30:12.333Z,7.70
2022-09-30T06:32:40.285Z,7.07
2022-09-30T06:35:08.704Z,5.90
2022-09-30T06:37:37.985Z,6.50
2022-09-30T06:40:07.608Z,5.47
2022-09-30T06:42:36.010Z,6.53
2022-09-30T06:45:03.955Z,6.53
2022-09-30T06:47:33.329Z,5.60
2022-09-30T06:50:02.426Z,7.17
2022-09-30T06:52:30.327Z,9.07
2022-09-30T06:54:59.605Z,6.10
2022-09-30T06:57:27.833Z,6.43
2022-09-30T06:59:56.183Z,5.53
2022-09-30T07:02:24.245Z,5.20
2022-09-30T07:04:52.182Z,5.83
2022-09-30T07:07:20.823Z,5.77
2022-09-30T07:09:48.937Z,5.80
2022-09-30T07:12:18.364Z,6.97
2022-09-30T07:14:46.269Z,5.73
2022-09-30T07:17:14.149Z,5.60
2022-09-30T07:19:42.037Z,6.53
2022-09-30T07:22:35.841Z,5.97
2022-09-30T07:25:08.093Z,8.17
2022-09-30T07:27:38.002Z,5.87
2022-09-30T07:30:26.692Z,8.37
2022-09-30T07:32:57.745Z,5.80
2022-09-30T07:35:25.630Z,6.67
2022-09-30T07:37:55.537Z,5.77
2022-09-30T07:40:23.405Z,6.10
2022-09-30T07:42:59.739Z,6.80
2022-09-30T07:45:28.417Z,6.10
2022-09-30T07:47:59.868Z,5.97
2022-09-30T07:50:27.674Z,8.00
2022-09-30T07:53:03.754Z,6.10
2022-09-30T07:55:32.578Z,7.60
2022-09-30T07:58:09.468Z,7.60
2022-09-30T08:00:42.481Z,6.60
2022-09-30T08:03:11.497Z,6.87
2022-09-30T08:05:49.815Z,6.63
2022-09-30T08:08:18.882Z,8.17
2022-09-30T08:10:46.684Z,5.60
2022-09-30T08:13:16.688Z,5.77
2022-09-30T08:15:48.927Z,5.53
2022-09-30T08:18:16.831Z,5.83
2022-09-30T08:20:46.832Z,5.20
2022-09-30T08:23:14.717Z,6.30
2022-09-30T08:25:42.554Z,5.73
2022-09-30T08:42:57.788Z,4.77
2022-09-30T08:45:43.054Z,7.03
2022-09-30T08:48:28.726Z,4.30
2022-09-30T08:51:05.688Z,5.10
2022-09-30T08:56:28.324Z,4.23
2022-09-30T08:59:07.133Z,5.97
2022-09-30T09:01:37.517Z,4.40
2022-09-30T09:04:07.478Z,3.87
2022-09-30T09:06:56.613Z,5.17
2022-09-30T09:09:45.719Z,4.67
2022-09-30T09:13:05.864Z,4.87
2022-09-30T09:19:07.562Z,2.80
2022-09-30T09:21:49.773Z,2.40
2022-09-30T09:27:26.395Z,2.23
2022-09-30T09:33:21.282Z,2.70
2022-09-30T09:35:52.743Z,3.60
2022-09-30T09:38:56.319Z,2.40
2022-09-30T09:41:43.370Z,2.50
2022-09-30T09:44:22.386Z,4.37
2022-09-30T09:46:56.509Z,2.30
2022-09-30T09:50:04.379Z,2.83
2022-09-30T09:59:19.736Z,2.77
2022-09-30T10:02:23.142Z,2.20
2022-09-30T10:05:33.287Z,2.50
2022-09-30T10:08:35.264Z,3.30
2022-09-30T10:11:15.701Z,3.77
2022-09-30T10:14:06.096Z,2.90
2022-09-30T10:17:03.008Z,3.37
2022-09-30T10:22:34.780Z,3.07
2022-09-30T10:28:32.893Z,3.40
2022-09-30T10:31:08.062Z,2.90
2022-09-30T10:33:52.955Z,4.43
2022-09-30T10:36:26.828Z,3.10
2022-09-30T10:39:05.920Z,2.97
2022-09-30T10:41:37.909Z,4.47
2022-09-30T10:44:13.440Z,2.80
2022-09-30T10:46:44.992Z,2.67
2022-09-30T10:49:26.813Z,3.00
2022-09-30T10:51:56.949Z,3.03
2022-09-30T10:55:36.617Z,2.20
2022-09-30T10:58:44.282Z,2.40
2022-09-30T11:01:36.338Z,2.00
2022-09-30T11:04:51.141Z,2.70
2022-09-30T11:07:36.253Z,2.03
2022-09-30T11:13:10.461Z,2.43
2022-09-30T11:15:57.950Z,1.77
2022-09-30T11:18:39.112Z,2.47
2022-09-30T11:21:56.129Z,1.70
2022-09-30T11:24:33.952Z,0.93
2022-09-30T11:27:16.748Z,0.80
2022-09-30T11:30:12.138Z,1.07
2022-09-30T11:32:57.454Z,1.03
2022-09-30T11:35:39.400Z,1.23
2022-09-30T11:41:32.615Z,0.70
2022-09-30T11:44:21.636Z,1.63
2022-09-30T11:47:33.145Z,0.90
2022-09-30T11:50:26.157Z,1.07
2022-09-30T11:53:41.718Z,1.37
2022-09-30T11:59:55.623Z,0.70
2022-09-30T12:02:52.309Z,2.10
2022-09-30T12:06:16.939Z,1.23
2022-09-30T12:09:19.607Z,1.10
2022-09-30T12:12:22.264Z,1.43
2022-09-30T12:15:03.484Z,1.30
2022-09-30T12:20:37.930Z,2.03
2022-09-30T12:23:26.162Z,1.47
2022-09-30T12:26:00.311Z,1.40
2022-09-30T12:28:51.333Z,1.63
2022-09-30T12:31:49.310Z,2.57
2022-09-30T12:34:32.073Z,1.23
2022-09-30T12:37:24.836Z,2.03
2022-09-30T12:40:18.914Z,1.90
2022-09-30T12:43:12.244Z,0.70
2022-09-30T12:46:20.837Z,0.70
2022-09-30T12:48:51.349Z,1.03
2022-09-30T12:51:29.168Z,0.97
2022-09-30T12:54:04.461Z,0.57
2022-09-30T12:56:39.062Z,2.30
2022-09-30T12:59:12.560Z,2.57
2022-09-30T13:01:43.386Z,1.60
2022-09-30T13:04:21.055Z,0.80
2022-09-30T13:07:21.297Z,0.83
2022-09-30T13:10:01.182Z,0.70
2022-09-30T13:12:42.599Z,2.33
2022-09-30T13:15:53.062Z,3.53
2022-09-30T13:19:02.249Z,1.30
2022-09-30T13:21:32.016Z,2.50
2022-09-30T13:24:13.027Z,1.47
2022-09-30T13:26:49.813Z,1.00
2022-09-30T13:29:40.381Z,1.00
2022-09-30T13:32:11.998Z,4.87
2022-09-30T13:35:00.560Z,1.90
2022-09-30T13:37:40.060Z,2.23
2022-09-30T13:40:43.627Z,2.23
2022-09-30T13:43:21.285Z,1.73
2022-09-30T13:45:53.024Z,2.10
2022-09-30T13:48:40.456Z,2.83
2022-09-30T13:54:04.938Z,2.37
2022-09-30T13:57:06.057Z,2.97
2022-09-30T14:00:20.856Z,1.93
2022-09-30T14:03:14.150Z,2.43
2022-09-30T14:05:55.523Z,2.60
2022-09-30T14:08:53.988Z,2.87
2022-09-30T14:11:45.250Z,2.20
2022-09-30T14:14:38.058Z,3.43
2022-09-30T14:17:24.801Z,1.87
2022-09-30T14:20:05.812Z,2.93
2022-09-30T14:22:42.481Z,3.07
2022-09-30T14:25:16.486Z,2.77
2022-09-30T14:28:06.279Z,2.50
2022-09-30T14:30:40.261Z,2.30
2022-09-30T14:33:28.651Z,1.70
2022-09-30T14:36:11.490Z,1.60
2022-09-30T14:38:45.371Z,2.10
2022-09-30T14:41:21.744Z,5.30
2022-09-30T14:43:58.881Z,2.23
2022-09-30T14:46:31.175Z,2.10
2022-09-30T14:49:08.430Z,4.57
2022-09-30T14:51:44.903Z,2.10
2022-09-30T14:54:22.568Z,1.57
2022-09-30T14:56:54.445Z,2.33
2022-09-30T14:59:26.838Z,2.23
2022-09-30T15:02:00.593Z,3.27
2022-09-30T15:04:40.154Z,2.43
2022-09-30T15:07:13.945Z,2.70
2022-09-30T15:09:46.950Z,4.20
2022-09-30T15:12:18.098Z,4.20
2022-09-30T15:14:50.047Z,4.33
2022-09-30T15:17:20.724Z,3.37
2022-09-30T15:19:50.266Z,4.23
2022-09-30T15:22:19.461Z,2.70
2022-09-30T15:24:50.861Z,2.60
2022-09-30T15:27:25.078Z,3.20
2022-09-30T15:30:04.161Z,2.53
2022-09-30T15:32:36.493Z,2.70
2022-09-30T15:35:08.292Z,2.93
2022-09-30T15:37:37.382Z,3.20
2022-09-30T15:40:34.621Z,2.97
2022-09-30T15:43:06.887Z,3.80
2022-09-30T15:45:39.502Z,3.87
2022-09-30T15:48:09.050Z,2.80
2022-09-30T15:50:43.532Z,2.80
2022-09-30T15:53:21.220Z,3.63
2022-09-30T15:55:53.446Z,3.30
2022-09-30T15:58:37.921Z,3.43
2022-09-30T16:01:17.567Z,4.20
2022-09-30T16:03:55.314Z,3.03
2022-09-30T16:06:32.393Z,3.67
2022-09-30T16:09:03.429Z,3.33
2022-09-30T16:11:36.643Z,3.33
2022-09-30T16:14:10.700Z,4.10
2022-09-30T16:16:39.818Z,3.73
2022-09-30T16:22:52.513Z,6.40
2022-09-30T16:25:33.206Z,3.13
2022-09-30T16:28:12.648Z,3.23
2022-09-30T16:30:49.317Z,3.23
2022-09-30T16:33:46.246Z,3.30
2022-09-30T16:36:51.731Z,3.23
2022-09-30T16:39:20.384Z,3.53
2022-09-30T16:41:51.841Z,5.33
2022-09-30T16:44:30.054Z,3.17
2022-09-30T16:47:01.293Z,3.17
2022-09-30T16:52:40.992Z,3.13
2022-09-30T16:55:10.021Z,2.83
2022-09-30T16:57:43.268Z,3.57
2022-09-30T17:00:36.005Z,4.10
2022-09-30T17:03:19.474Z,4.33
2022-09-30T17:05:55.106Z,3.83
2022-09-30T17:08:24.205Z,5.07
2022-09-30T17:10:54.078Z,4.40
2022-09-30T17:13:24.690Z,5.57
2022-09-30T17:16:21.842Z,2.90
2022-09-30T17:18:54.608Z,5.33
2022-09-30T17:25:05.438Z,6.13
2022-09-30T17:31:27.558Z,2.53
2022-09-30T17:33:56.535Z,3.87
2022-09-30T17:36:25.170Z,3.47
2022-09-30T17:39:25.569Z,3.33
2022-09-30T17:45:04.319Z,2.73
2022-09-30T17:47:39.580Z,4.13
2022-09-30T17:50:22.149Z,4.03
2022-09-30T17:52:50.016Z,3.50
2022-09-30T17:55:17.858Z,3.80
2022-09-30T17:58:21.985Z,4.03
2022-09-30T18:00:49.824Z,3.20
2022-09-30T18:03:20.040Z,3.90
2022-09-30T18:08:49.845Z,3.57
2022-09-30T18:11:21.146Z,5.43
2022-09-30T18:13:55.897Z,3.83
2022-09-30T18:16:24.491Z,4.50
2022-09-30T18:18:53.925Z,6.03
2022-09-30T18:21:24.919Z,3.97
2022-09-30T18:24:02.529Z,4.40
2022-09-30T18:26:33.511Z,4.07
2022-09-30T18:29:24.074Z,4.03
2022-09-30T18:32:08.707Z,6.13
2022-09-30T18:34:42.563Z,4.37
2022-09-30T18:37:14.447Z,3.93
2022-09-30T18:42:47.105Z,3.37
2022-09-30T18:45:41.141Z,4.93
2022-09-30T18:48:17.086Z,4.37
2022-09-30T18:50:52.039Z,2.97
2022-09-30T18:53:20.627Z,3.67
2022-09-30T18:55:52.657Z,5.47
2022-09-30T18:58:20.488Z,4.67
2022-09-30T19:00:48.346Z,6.37
2022-09-30T19:03:19.001Z,4.07
2022-09-30T19:05:46.823Z,3.73
2022-09-30T19:08:16.990Z,5.23
2022-09-30T19:10:46.861Z,5.67
2022-09-30T19:13:16.145Z,4.73
2022-09-30T19:15:43.980Z,10.00
2022-09-30T19:18:11.765Z,9.07
2022-09-30T19:20:41.841Z,6.20
2022-09-30T19:23:10.758Z,5.37
2022-09-30T19:25:42.689Z,4.27
2022-09-30T19:28:23.078Z,3.40
2022-09-30T19:30:52.273Z,6.10
2022-09-30T19:33:26.104Z,3.43
2022-09-30T19:36:14.852Z,6.07
2022-09-30T19:38:45.111Z,7.73
2022-09-30T19:41:15.225Z,4.17
2022-09-30T19:43:45.943Z,6.80
2022-09-30T19:46:18.114Z,3.87
2022-09-30T19:48:46.188Z,4.53
2022-09-30T19:51:16.906Z,2.97
2022-09-30T19:53:57.195Z,3.97
2022-09-30T19:56:30.460Z,3.47
2022-09-30T19:59:03.582Z,3.70
2022-09-30T20:01:34.459Z,5.07
2022-09-30T20:04:04.893Z,3.90
2022-09-30T20:06:38.331Z,5.10
2022-09-30T20:09:12.926Z,2.60
2022-09-30T20:11:42.522Z,3.80
2022-09-30T20:14:27.639Z,3.03
2022-09-30T20:17:03.760Z,2.90
2022-09-30T20:19:31.569Z,2.90
2022-09-30T20:21:59.518Z,3.17
2022-09-30T20:24:27.340Z,2.93
2022-09-30T20:26:57.538Z,2.90
2022-09-30T20:29:33.073Z,2.60
2022-09-30T20:32:02.901Z,2.87
2022-09-30T20:34:31.515Z,5.23
2022-09-30T20:37:01.312Z,3.30
2022-09-30T20:39:29.114Z,2.77
2022-09-30T20:41:58.674Z,3.17
2022-09-30T20:44:26.495Z,2.63
2022-09-30T20:46:57.167Z,3.73
2022-09-30T20:49:28.482Z,4.07
2022-09-30T20:51:56.262Z,5.00
2022-09-30T20:54:25.586Z,5.00
2022-09-30T20:57:09.142Z,3.03
2022-09-30T20:59:39.406Z,2.10
2022-09-30T21:02:07.785Z,2.50
2022-09-30T21:04:36.926Z,3.00
2022-09-30T21:07:04.716Z,3.07
2022-09-30T21:09:38.775Z,2.43
2022-09-30T21:12:09.552Z,3.77
2022-09-30T21:14:40.124Z,2.33
2022-09-30T21:17:08.112Z,1.93
2022-09-30T21:19:37.970Z,4.50
2022-09-30T21:22:13.495Z,5.87
2022-09-30T21:27:28.559Z,2.53
2022-09-30T21:29:56.965Z,2.83
2022-09-30T21:32:24.986Z,2.30
2022-09-30T21:34:54.142Z,2.27
2022-09-30T21:37:21.970Z,3.37
2022-09-30T21:39:49.792Z,3.80
2022-09-30T21:42:17.593Z,2.50
2022-09-30T21:44:45.430Z,2.37
2022-09-30T21:47:14.530Z,4.13
2022-09-30T21:49:42.536Z,2.00
2022-09-30T21:52:19.086Z,3.13
2022-09-30T21:54:47.037Z,2.37
2022-09-30T21:57:15.307Z,2.33
2022-09-30T21:59:46.302Z,1.90
2022-09-30T22:02:16.488Z,2.93
2022-09-30T22:04:44.493Z,2.77
2022-09-30T22:07:15.375Z,2.43
2022-09-30T22:09:43.721Z,2.57
2022-09-30T22:12:11.799Z,2.53
2022-09-30T22:14:39.606Z,3.70
2022-09-30T22:17:09.128Z,2.50
2022-09-30T22:19:38.807Z,3.17
2022-09-30T22:22:06.609Z,3.27
2022-09-30T22:24:36.872Z,3.97
2022-09-30T22:27:06.643Z,7.00
2022-09-30T22:29:34.794Z,2.73
2022-09-30T22:32:03.239Z,3.53
2022-09-30T22:34:49.850Z,2.63
2022-09-30T22:37:34.951Z,3.30
2022-09-30T22:40:04.500Z,3.53
2022-09-30T22:42:37.203Z,8.47
2022-09-30T22:45:10.385Z,6.57
2022-09-30T22:47:39.056Z,3.53
2022-09-30T22:53:03.807Z,3.33
2022-09-30T22:55:35.527Z,3.80
2022-09-30T22:58:07.034Z,4.17
2022-09-30T23:00:35.364Z,3.17
2022-09-30T23:03:10.192Z,4.20
2022-09-30T23:05:38.199Z,3.67
2022-09-30T23:08:16.966Z,4.33
2022-09-30T23:10:50.777Z,3.60
2022-09-30T23:13:20.671Z,4.10
2022-09-30T23:15:51.937Z,4.10
2022-09-30T23:18:19.950Z,5.23
2022-09-30T23:20:56.350Z,4.00
2022-09-30T23:23:24.427Z,5.00
2022-09-30T23:26:00.930Z,4.43
2022-09-30T23:28:29.157Z,3.53
2022-09-30T23:31:00.879Z,3.93
2022-09-30T23:33:33.153Z,5.27
2022-09-30T23:36:01.187Z,5.43
2022-09-30T23:38:31.703Z,4.33
2022-09-30T23:41:05.168Z,4.30
2022-09-30T23:43:35.092Z,4.30
2022-09-30T23:46:03.241Z,6.60
2022-09-30T23:48:33.470Z,5.47
2022-09-30T23:51:01.839Z,3.80
2022-09-30T23:53:30.230Z,4.67
2022-09-30T23:56:05.846Z,4.77
2022-09-30T23:58:34.566Z,4.07
